createdAt,value
2022-10-06T00:00:33.998Z,3.33
2022-10-06T00:08:38.520Z,3.35
2022-10-06T00:12:42.214Z,2.25
2022-10-06T00:20:27.191Z,7.43
2022-10-06T00:24:06.509Z,5.07
2022-10-06T00:27:20.441Z,1.27
2022-10-06T00:30:48.641Z,2.83
2022-10-06T00:37:21.193Z,2.38
2022-10-06T00:40:57.743Z,2.92
2022-10-06T00:44:40.591Z,3.70
2022-10-06T00:59:16.153Z,2.58
2022-10-06T01:02:58.998Z,2.90
2022-10-06T01:06:41.388Z,4.50
2022-10-06T01:10:12.878Z,2.30
2022-10-06T01:13:53.259Z,2.55
2022-10-06T01:17:23.987Z,4.47
2022-10-06T01:21:50.611Z,3.38
2022-10-06T01:25:42.958Z,3.17
2022-10-06T01:29:21.455Z,7.13
2022-10-06T01:33:20.814Z,5.17
2022-10-06T01:36:35.263Z,3.80
2022-10-06T01:40:32.504Z,9.47
2022-10-06T01:43:56.797Z,4.63
2022-10-06T01:47:04.999Z,8.07
2022-10-06T01:50:12.839Z,3.38
2022-10-06T01:53:20.423Z,2.88
2022-10-06T01:56:22.978Z,3.40
2022-10-06T01:59:26.154Z,6.18
2022-10-06T02:02:33.409Z,4.55
2022-10-06T02:05:41.140Z,6.28
2022-10-06T02:08:45.035Z,7.68
2022-10-06T02:11:53.643Z,4.82
2022-10-06T02:14:58.921Z,8.32
2022-10-06T02:18:01.469Z,2.80
2022-10-06T02:21:04.158Z,6.10
2022-10-06T02:24:11.548Z,6.43
2022-10-06T02:27:14.647Z,8.30
2022-10-06T02:30:17.871Z,5.72
2022-10-06T02:33:23.679Z,5.28
2022-10-06T02:36:26.328Z,7.78
2022-10-06T02:39:30.879Z,6.50
2022-10-06T02:42:35.388Z,6.47
2022-10-06T02:45:38.358Z,6.10
2022-10-06T02:48:41.507Z,6.45
2022-10-06T02:51:49.085Z,8.52
2022-10-06T02:54:58.974Z,5.85
2022-10-06T02:59:25.586Z,9.38
2022-10-06T03:04:13.516Z,12.75
2022-10-06T03:15:59.370Z,11.20
2022-10-06T03:20:24.919Z,3.80
2022-10-06T03:24:45.003Z,9.20
2022-10-06T03:28:13.390Z,8.48
2022-10-06T03:31:21.813Z,8.15
2022-10-06T03:34:24.589Z,11.70
2022-10-06T03:37:28.562Z,7.07
2022-10-06T03:40:30.952Z,12.88
2022-10-06T03:43:34.708Z,9.63
2022-10-06T03:46:37.303Z,5.53
2022-10-06T03:49:42.214Z,5.00
2022-10-06T03:52:45.502Z,8.43
2022-10-06T03:55:47.730Z,8.98
2022-10-06T03:58:52.701Z,12.32
2022-10-06T04:01:56.087Z,7.68
2022-10-06T04:05:06.032Z,10.43
2022-10-06T04:08:08.284Z,7.60
2022-10-06T04:11:12.264Z,8.27
2022-10-06T04:14:16.603Z,10.57
2022-10-06T04:17:20.409Z,15.55
2022-10-06T04:20:22.732Z,15.25
2022-10-06T04:23:25.075Z,8.82
2022-10-06T04:26:30.499Z,12.48
2022-10-06T04:29:34.278Z,11.50
2022-10-06T04:32:37.648Z,7.00
2022-10-06T04:35:39.780Z,12.10
2022-10-06T04:38:42.534Z,7.72
2022-10-06T04:41:47.661Z,9.43
2022-10-06T04:45:04.533Z,10.13
2022-10-06T04:48:09.993Z,6.68
2022-10-06T04:51:14.254Z,8.63
2022-10-06T04:54:16.938Z,12.00
2022-10-06T04:57:19.152Z,14.63
2022-10-06T05:00:22.831Z,15.05
2022-10-06T05:03:26.219Z,12.07
2022-10-06T05:06:29.942Z,11.45
2022-10-06T05:09:33.342Z,11.30
2022-10-06T05:12:37.007Z,10.52
2022-10-06T05:15:40.746Z,9.48
2022-10-06T05:18:43.579Z,10.95
2022-10-06T05:21:48.961Z,13.43
2022-10-06T05:24:55.833Z,20.33
2022-10-06T05:27:58.135Z,11.02
2022-10-06T05:31:03.866Z,15.45
2022-10-06T05:34:06.563Z,11.75
2022-10-06T05:37:08.962Z,19.83
2022-10-06T05:40:11.638Z,13.95
2022-10-06T05:43:13.921Z,13.13
2022-10-06T05:46:24.808Z,7.18
2022-10-06T05:49:29.092Z,13.55
2022-10-06T05:52:34.470Z,10.68
2022-10-06T05:55:36.951Z,12.60
2022-10-06T05:58:40.742Z,12.05
2022-10-06T06:01:44.367Z,16.52
2022-10-06T06:05:00.820Z,11.00
2022-10-06T06:08:03.052Z,12.68
2022-10-06T06:11:07.539Z,12.23
2022-10-06T06:14:11.552Z,7.78
2022-10-06T06:17:15.668Z,9.35
2022-10-06T06:20:17.958Z,8.32
2022-10-06T06:23:20.351Z,16.50
2022-10-06T06:26:24.037Z,9.70
2022-10-06T06:29:27.887Z,7.13
2022-10-06T06:32:31.915Z,12.80
2022-10-06T06:35:34.849Z,14.48
2022-10-06T06:38:37.930Z,10.65
2022-10-06T06:41:41.906Z,10.27
2022-10-06T06:44:55.566Z,14.32
2022-10-06T06:48:05.911Z,11.70
2022-10-06T06:51:11.766Z,12.10
2022-10-06T06:54:13.961Z,9.00
2022-10-06T06:57:22.059Z,7.80
2022-10-06T07:00:26.839Z,9.68
2022-10-06T07:03:56.205Z,15.15
2022-10-06T07:06:58.133Z,8.55
2022-10-06T07:10:04.585Z,13.90
2022-10-06T07:13:14.077Z,12.13
2022-10-06T07:16:35.939Z,11.25
2022-10-06T07:19:58.296Z,15.15
2022-10-06T07:23:22.089Z,12.75
2022-10-06T07:26:24.739Z,11.63
2022-10-06T07:29:27.816Z,12.40
2022-10-06T07:32:31.204Z,9.25
2022-10-06T07:35:35.698Z,11.30
2022-10-06T07:38:39.811Z,11.65
2022-10-06T07:41:44.161Z,10.30
2022-10-06T07:45:08.527Z,9.60
2022-10-06T07:48:15.311Z,11.10
2022-10-06T07:51:20.280Z,5.35
2022-10-06T07:54:27.143Z,12.38
2022-10-06T07:57:52.779Z,11.05
2022-10-06T08:00:55.106Z,10.07
2022-10-06T08:03:57.300Z,11.02
2022-10-06T08:07:00.904Z,6.63
2022-10-06T08:10:03.751Z,9.38
2022-10-06T08:13:06.421Z,9.05
2022-10-06T08:16:10.636Z,11.35
2022-10-06T08:19:14.543Z,11.20
2022-10-06T08:22:18.189Z,7.20
2022-10-06T08:25:20.814Z,9.43
2022-10-06T08:28:24.349Z,8.13
2022-10-06T08:31:26.902Z,6.15
2022-10-06T08:34:29.292Z,10.93
2022-10-06T08:37:35.888Z,10.00
2022-10-06T08:40:38.148Z,6.88
2022-10-06T08:43:40.347Z,9.68
2022-10-06T08:46:49.488Z,11.00
2022-10-06T08:49:54.065Z,9.45
2022-10-06T08:53:06.433Z,9.23
2022-10-06T08:56:17.973Z,9.40
2022-10-06T08:59:21.222Z,9.75
2022-10-06T09:02:28.588Z,9.45
2022-10-06T09:05:32.009Z,6.65
2022-10-06T09:08:50.689Z,9.40
2022-10-06T09:12:02.232Z,7.18
2022-10-06T09:15:15.525Z,8.68
2022-10-06T09:18:22.173Z,6.15
2022-10-06T09:21:30.262Z,13.05
2022-10-06T09:24:37.828Z,5.82
2022-10-06T09:27:41.512Z,7.53
2022-10-06T09:30:43.863Z,6.90
2022-10-06T09:33:47.200Z,7.35
2022-10-06T09:37:01.968Z,9.75
2022-10-06T09:40:36.551Z,6.50
2022-10-06T09:43:39.344Z,5.10
2022-10-06T09:46:43.394Z,5.07
2022-10-06T09:50:12.383Z,8.20
2022-10-06T09:53:16.240Z,5.22
2022-10-06T09:56:19.869Z,5.45
2022-10-06T09:59:24.083Z,9.55
2022-10-06T10:02:31.686Z,6.85
2022-10-06T10:05:36.407Z,4.95
2022-10-06T10:08:38.611Z,5.20
2022-10-06T10:12:02.639Z,8.13
2022-10-06T10:15:24.123Z,5.30
2022-10-06T10:18:30.286Z,8.27
2022-10-06T10:21:33.956Z,7.35
2022-10-06T10:24:47.603Z,8.95
2022-10-06T10:27:58.058Z,5.53
2022-10-06T10:31:05.333Z,6.25
2022-10-06T10:34:23.856Z,8.15
2022-10-06T10:37:31.775Z,6.03
2022-10-06T10:40:40.093Z,3.50
2022-10-06T10:43:48.002Z,3.35
2022-10-06T10:46:52.421Z,3.42
2022-10-06T10:49:59.392Z,5.63
2022-10-06T10:53:08.872Z,3.90
2022-10-06T10:56:12.354Z,5.50
2022-10-06T10:59:19.020Z,5.55
2022-10-06T11:02:22.536Z,5.10
2022-10-06T11:05:36.451Z,4.00
2022-10-06T11:08:45.118Z,4.55
2022-10-06T11:11:57.913Z,5.13
2022-10-06T11:15:03.488Z,3.53
2022-10-06T11:18:13.303Z,6.88
2022-10-06T11:21:18.975Z,3.78
2022-10-06T11:24:31.855Z,5.55
2022-10-06T11:27:41.033Z,2.25
2022-10-06T11:31:00.353Z,3.95
2022-10-06T11:34:04.499Z,4.72
2022-10-06T11:37:16.640Z,4.20
2022-10-06T11:40:35.518Z,5.40
2022-10-06T11:43:43.009Z,3.42
2022-10-06T11:46:51.138Z,7.35
2022-10-06T11:49:55.981Z,3.63
2022-10-06T11:52:58.234Z,7.20
2022-10-06T11:56:43.175Z,3.72
2022-10-06T11:59:45.351Z,5.40
2022-10-06T12:02:49.122Z,6.28
2022-10-06T12:05:58.690Z,4.97
2022-10-06T12:09:01.933Z,2.85
2022-10-06T12:13:06.841Z,4.65
2022-10-06T12:19:53.513Z,3.40
2022-10-06T12:23:01.367Z,6.93
2022-10-06T12:26:07.733Z,4.20
2022-10-06T12:29:26.276Z,4.65
2022-10-06T12:32:44.133Z,4.45
2022-10-06T12:35:50.922Z,3.50
2022-10-06T12:39:05.294Z,3.90
2022-10-06T12:42:16.380Z,3.45
2022-10-06T12:45:19.031Z,6.25
2022-10-06T12:48:31.282Z,7.60
2022-10-06T12:51:38.784Z,5.15
2022-10-06T12:54:50.735Z,3.88
2022-10-06T12:57:53.436Z,4.93
2022-10-06T13:01:02.556Z,4.82
2022-10-06T13:04:06.906Z,5.63
2022-10-06T13:07:14.479Z,2.92
2022-10-06T13:10:19.581Z,5.75
2022-10-06T13:13:24.604Z,6.90
2022-10-06T13:16:29.026Z,6.03
2022-10-06T13:19:31.357Z,5.32
2022-10-06T13:22:35.269Z,3.72
2022-10-06T13:25:46.967Z,6.63
2022-10-06T13:31:53.252Z,3.80
2022-10-06T13:34:57.643Z,8.55
2022-10-06T13:38:03.972Z,7.65
2022-10-06T13:41:21.828Z,5.47
2022-10-06T13:44:29.263Z,2.97
2022-10-06T13:47:31.757Z,3.90
2022-10-06T13:50:39.012Z,5.32
2022-10-06T13:53:44.920Z,4.72
2022-10-06T13:56:47.165Z,8.20
2022-10-06T14:00:02.363Z,3.28
2022-10-06T14:03:10.512Z,3.40
2022-10-06T14:06:16.892Z,3.45
2022-10-06T14:09:24.385Z,9.18
2022-10-06T14:12:26.873Z,1.67
2022-10-06T14:15:31.253Z,7.65
2022-10-06T14:18:37.686Z,5.72
2022-10-06T14:21:45.734Z,5.97
2022-10-06T14:24:52.348Z,2.63
2022-10-06T14:27:55.122Z,1.95
2022-10-06T14:30:57.818Z,3.70
2022-10-06T14:34:00.542Z,3.83
2022-10-06T14:37:02.731Z,2.10
2022-10-06T14:40:12.085Z,3.13
2022-10-06T14:43:14.647Z,2.03
2022-10-06T14:46:16.931Z,4.20
2022-10-06T14:49:19.497Z,5.85
2022-10-06T14:52:22.216Z,3.67
2022-10-06T14:55:28.968Z,4.32
2022-10-06T14:58:31.786Z,3.33
2022-10-06T15:01:39.568Z,3.83
2022-10-06T15:04:44.063Z,1.88
2022-10-06T15:08:05.048Z,3.72
2022-10-06T15:11:08.676Z,5.57
2022-10-06T15:14:12.708Z,4.80
2022-10-06T15:17:15.014Z,9.13
2022-10-06T15:20:17.668Z,2.80
2022-10-06T15:23:20.057Z,2.30
2022-10-06T15:26:42.940Z,3.67
2022-10-06T15:29:45.181Z,2.25
2022-10-06T15:32:48.693Z,3.50
2022-10-06T15:36:06.961Z,6.50
2022-10-06T15:39:10.725Z,6.65
2022-10-06T15:42:20.254Z,6.85
2022-10-06T15:45:22.487Z,4.00
2022-10-06T15:48:24.788Z,3.88
2022-10-06T15:51:30.278Z,5.05
2022-10-06T15:54:37.879Z,1.83
2022-10-06T15:57:41.531Z,5.43
2022-10-06T16:00:44.070Z,2.72
2022-10-06T16:03:46.344Z,4.30
2022-10-06T16:06:55.384Z,6.30
2022-10-06T16:09:57.603Z,2.88
2022-10-06T16:13:01.224Z,4.32
2022-10-06T16:16:03.630Z,3.35
2022-10-06T16:19:06.076Z,2.83
2022-10-06T16:22:10.102Z,3.90
2022-10-06T16:25:15.355Z,6.28
2022-10-06T16:28:19.004Z,4.53
2022-10-06T16:31:21.627Z,3.28
2022-10-06T16:34:25.369Z,4.45
2022-10-06T16:37:30.124Z,4.90
2022-10-06T16:40:32.447Z,1.50
2022-10-06T16:43:37.513Z,4.88
2022-10-06T16:46:40.029Z,4.13
2022-10-06T16:49:42.445Z,4.10
2022-10-06T16:52:44.907Z,4.32
2022-10-06T16:55:47.137Z,4.18
2022-10-06T16:58:55.008Z,3.55
2022-10-06T17:01:57.253Z,1.88
2022-10-06T17:04:59.413Z,2.63
2022-10-06T17:08:01.606Z,6.57
2022-10-06T17:11:10.838Z,3.47
2022-10-06T17:14:14.690Z,3.22
2022-10-06T17:17:17.107Z,4.10
2022-10-06T17:20:19.402Z,2.53
2022-10-06T17:23:22.191Z,3.45
2022-10-06T17:26:27.468Z,3.35
2022-10-06T17:29:30.997Z,6.30
2022-10-06T17:32:33.197Z,4.57
2022-10-06T17:35:37.104Z,3.67
2022-10-06T17:38:41.838Z,2.45
2022-10-06T17:41:45.552Z,3.65
2022-10-06T17:44:49.134Z,3.78
2022-10-06T17:47:55.185Z,5.00
2022-10-06T17:50:58.237Z,9.68
2022-10-06T17:54:03.848Z,3.55
2022-10-06T17:57:06.086Z,4.93
2022-10-06T18:00:11.375Z,5.00
2022-10-06T18:03:16.855Z,5.57
2022-10-06T18:06:19.532Z,2.72
2022-10-06T18:09:22.379Z,7.00
2022-10-06T18:12:25.070Z,5.38
2022-10-06T18:15:28.718Z,13.13
2022-10-06T18:18:31.115Z,8.32
2022-10-06T18:21:38.732Z,5.50
2022-10-06T18:24:41.562Z,6.53
2022-10-06T18:27:45.637Z,4.78
2022-10-06T18:30:51.275Z,4.75
2022-10-06T18:37:16.248Z,8.38
2022-10-06T18:40:18.446Z,6.25
2022-10-06T18:43:20.808Z,6.70
2022-10-06T18:46:44.538Z,5.97
2022-10-06T18:49:46.840Z,6.22
2022-10-06T18:52:49.023Z,11.55
2022-10-06T18:55:53.090Z,7.88
2022-10-06T18:58:56.454Z,13.40
2022-10-06T19:02:00.677Z,6.88
2022-10-06T19:05:03.332Z,11.85
2022-10-06T19:08:05.901Z,10.65
2022-10-06T19:11:26.550Z,11.85
2022-10-06T19:14:32.592Z,10.38
2022-10-06T19:17:36.271Z,10.40
2022-10-06T19:20:39.422Z,11.50
2022-10-06T19:23:41.842Z,15.00
2022-10-06T19:26:46.402Z,12.32
2022-10-06T19:29:50.869Z,18.15
2022-10-06T19:32:54.511Z,25.92
2022-10-06T19:35:57.384Z,22.05
2022-10-06T19:39:03.498Z,12.77
2022-10-06T19:42:24.537Z,12.98
2022-10-06T19:45:26.806Z,12.77
2022-10-06T19:48:30.914Z,12.35
2022-10-06T19:51:34.294Z,11.75
2022-10-06T19:54:37.108Z,10.27
2022-10-06T19:57:39.387Z,10.27
2022-10-06T20:00:42.081Z,8.25
2022-10-06T20:03:45.750Z,10.18
2022-10-06T20:06:48.511Z,8.55
2022-10-06T20:09:50.756Z,7.32
2022-10-06T20:12:53.001Z,6.45
2022-10-06T20:15:55.305Z,12.93
2022-10-06T20:18:59.191Z,7.55
2022-10-06T20:22:01.517Z,10.23
2022-10-06T20:25:05.163Z,7.45
2022-10-06T20:28:09.333Z,7.70
2022-10-06T20:31:16.405Z,10.65
2022-10-06T20:34:22.196Z,9.90
2022-10-06T20:37:24.638Z,11.00
2022-10-06T20:40:47.070Z,11.70
2022-10-06T20:43:49.728Z,8.60
2022-10-06T20:46:51.893Z,8.57
2022-10-06T20:49:55.532Z,7.28
2022-10-06T20:52:58.438Z,8.25
2022-10-06T20:56:00.627Z,7.03
2022-10-06T20:59:03.421Z,6.85
2022-10-06T21:02:06.050Z,10.60
2022-10-06T21:05:10.105Z,5.63
2022-10-06T21:08:12.378Z,6.88
2022-10-06T21:11:18.939Z,8.13
2022-10-06T21:14:23.007Z,7.57
2022-10-06T21:17:25.431Z,7.25
2022-10-06T21:20:29.011Z,9.18
2022-10-06T21:23:36.850Z,11.05
2022-10-06T21:26:40.500Z,8.63
2022-10-06T21:29:42.808Z,8.43
2022-10-06T21:32:45.149Z,12.48
2022-10-06T21:35:49.024Z,5.25
2022-10-06T21:38:52.509Z,9.05
2022-10-06T21:41:54.728Z,10.90
2022-10-06T21:44:59.818Z,10.00
2022-10-06T21:48:01.951Z,9.65
2022-10-06T21:51:05.515Z,10.10
2022-10-06T21:54:10.036Z,12.43
2022-10-06T21:57:15.245Z,11.45
2022-10-06T22:00:17.506Z,7.95
2022-10-06T22:03:19.741Z,12.93
2022-10-06T22:06:23.714Z,14.15
2022-10-06T22:09:26.082Z,11.63
2022-10-06T22:12:28.295Z,8.88
2022-10-06T22:15:30.399Z,7.63
2022-10-06T22:18:33.121Z,15.60
2022-10-06T22:21:38.223Z,9.85
2022-10-06T22:24:40.341Z,9.32
2022-10-06T22:27:42.883Z,8.45
2022-10-06T22:30:45.266Z,8.30
2022-10-06T22:33:50.065Z,9.07
2022-10-06T22:36:53.671Z,11.25
2022-10-06T22:39:55.956Z,16.25
2022-10-06T22:42:58.083Z,8.05
2022-10-06T22:46:00.452Z,11.80
2022-10-06T22:49:03.552Z,10.00
2022-10-06T22:52:07.062Z,15.27
2022-10-06T22:55:09.460Z,9.15
2022-10-06T22:58:11.869Z,11.30
2022-10-06T23:01:15.790Z,5.78
2022-10-06T23:04:17.949Z,8.13
2022-10-06T23:07:21.452Z,9.20
2022-10-06T23:10:24.989Z,8.95
2022-10-06T23:13:30.070Z,10.73
2022-10-06T23:16:32.322Z,6.15
2022-10-06T23:19:34.559Z,14.55
2022-10-06T23:22:38.234Z,8.02
2022-10-06T23:25:40.384Z,12.80
2022-10-06T23:28:42.938Z,11.15
2022-10-06T23:31:45.207Z,8.23
2022-10-06T23:34:47.492Z,9.77
2022-10-06T23:37:51.001Z,10.10
2022-10-06T23:40:54.042Z,9.65
2022-10-06T23:43:56.178Z,8.50
2022-10-06T23:46:58.476Z,7.53
2022-10-06T23:50:00.710Z,8.07
2022-10-06T23:53:04.271Z,12.00
2022-10-06T23:56:07.384Z,12.48
2022-10-06T23:59:09.525Z,8.25
